Odiham, United Kingdom
Current Conditions -  °F | °C
As of 10:50 AM on Friday 28 Nov 2014 (Local Time) from EGVO Reporting Station
Haze Haze  
Wind Chill: 50°   Ceiling: 700
Heat Index: 50°   Visibility: 5mi
Dew Point: 48°   Wind: 9mph
Humidity: 94%   Direction: 60°ENE
Pressure: 29.56"   Gusts: NA
Location:  51.25°N, 0.94°W
Report Text: EGVO 281050Z 06008KT 8000 HZ FEW006 OVC007 10/09 Q1001 GRN TEMPO SCT006 BKN008 YLO1
Loading
Personal Weather Stations






























Interactive Weather Map New forecast layout! Learn more

10-Day Weather Forecast

Advertisements
Track Severe Weather on mobile